Stapleton, Alabama
Current Conditions -  °F | °C
As of 10:03 AM on Sunday 23 Nov 2014 (Local Time) from KBFM Reporting Station
Thunderstorm Thunderstorm  
Wind Chill: 69°   Ceiling: 6500
Heat Index: 69°   Visibility: 10mi
Dew Point: 67°   Wind: 7mph
Humidity: 93%   Direction: 210°SSW
Pressure: 29.75"   Gusts: 17mph
Location:  30.74°N, 87.79°W
Report Text: KBFM 231603Z 21006G15KT 10SM VCTS FEW002 BKN065 OVC110 21/19 A2975 RMK AO2 LTG DSNT NE AND SE RAE1556 TSE1557 P0000 T02060194
Loading
Personal Weather Stations






























Interactive Weather Map New forecast layout! Learn more

10-Day Weather Forecast

Advertisements
Track Severe Weather on mobile